Time,TemperatureF,DewpointF,PressureIn,WindDirection,WindDirectionDegrees,WindSpeedMPH,WindSpeedGustMPH,Humidity,HourlyPrecipIn,Conditions,Clouds,dailyrainin,SoftwareType,DateUTC
2013-04-19 00:00:00,61.0,-99.9,30.04,North,9,22.0,36.0,-999,-99.99,,,-99.99,,2013-04-19 05:00:00,
2013-04-19 00:32:00,61.0,-99.9,30.04,North,9,22.0,36.0,-999,-99.99,,,-99.99,,2013-04-19 05:32:00,
2013-04-19 00:42:00,61.0,-99.9,30.04,North,9,22.0,36.0,-999,-99.99,,,-99.99,,2013-04-19 05:42:00,
2013-04-19 00:52:00,61.0,-99.9,30.04,North,9,22.0,36.0,-999,-99.99,,,-99.99,,2013-04-19 05:52:00,
2013-04-19 01:00:00,60.0,-99.9,30.07,North,-999,24.0,30.0,-999,-99.99,,,-99.99,,2013-04-19 06:00:00,
2013-04-19 01:32:00,60.0,-99.9,30.07,North,-999,24.0,30.0,-999,-99.99,,,-99.99,,2013-04-19 06:32:00,
2013-04-19 01:42:00,60.0,-99.9,30.07,North,-999,24.0,30.0,-999,-99.99,,,-99.99,,2013-04-19 06:42:00,
2013-04-19 01:53:00,60.0,-99.9,30.07,North,-999,24.0,30.0,-999,-99.99,,,-99.99,,2013-04-19 06:53:00,
2013-04-19 02:00:00,60.0,-99.9,30.10,North,6,23.0,30.0,-999,-99.99,,,-99.99,,2013-04-19 07:00:00,
2013-04-19 02:32:00,60.0,-99.9,30.10,North,6,23.0,30.0,-999,-99.99,,,-99.99,,2013-04-19 07:32:00,
2013-04-19 02:42:00,60.0,-99.9,30.10,North,6,23.0,30.0,-999,-99.99,,,-99.99,,2013-04-19 07:42:00,
2013-04-19 02:52:00,60.0,-99.9,30.10,North,6,23.0,30.0,-999,-99.99,,,-99.99,,2013-04-19 07:52:00,
2013-04-19 03:00:00,59.0,-99.9,30.10,North,8,21.0,34.0,-999,-99.99,,,-99.99,,2013-04-19 08:00:00,
2013-04-19 03:33:00,59.0,-99.9,30.10,North,8,21.0,34.0,-999,-99.99,,,-99.99,,2013-04-19 08:33:00,
2013-04-19 03:42:00,59.0,-99.9,30.10,North,8,21.0,34.0,-999,-99.99,,,-99.99,,2013-04-19 08:42:00,
2013-04-19 03:52:00,59.0,-99.9,30.10,North,8,21.0,34.0,-999,-99.99,,,-99.99,,2013-04-19 08:52:00,
2013-04-19 04:00:00,58.0,-99.9,30.11,North,4,27.0,35.0,-999,-99.99,,,-99.99,,2013-04-19 09:00:00,
2013-04-19 04:33:00,58.0,-99.9,30.11,North,4,27.0,35.0,-999,-99.99,,,-99.99,,2013-04-19 09:33:00,
2013-04-19 04:43:00,58.0,-99.9,30.11,North,4,27.0,35.0,-999,-99.99,,,-99.99,,2013-04-19 09:43:00,
2013-04-19 04:52:00,58.0,-99.9,30.11,North,4,27.0,35.0,-999,-99.99,,,-99.99,,2013-04-19 09:52:00,
2013-04-19 05:00:00,58.0,-99.9,30.12,North,1,28.0,38.0,-999,-99.99,,,-99.99,,2013-04-19 10:00:00,
2013-04-19 05:33:00,58.0,-99.9,30.12,North,1,28.0,38.0,-999,-99.99,,,-99.99,,2013-04-19 10:33:00,
2013-04-19 05:42:00,58.0,-99.9,30.12,North,1,28.0,38.0,-999,-99.99,,,-99.99,,2013-04-19 10:42:00,
2013-04-19 05:52:00,58.0,-99.9,30.12,North,1,28.0,38.0,-999,-99.99,,,-99.99,,2013-04-19 10:52:00,
2013-04-19 06:00:00,57.0,-99.9,30.14,North,9,26.0,32.0,-999,-99.99,,,-99.99,,2013-04-19 11:00:00,
2013-04-19 06:32:00,57.0,-99.9,30.14,North,9,26.0,32.0,-999,-99.99,,,-99.99,,2013-04-19 11:32:00,
2013-04-19 06:43:00,57.0,-99.9,30.14,North,9,26.0,32.0,-999,-99.99,,,-99.99,,2013-04-19 11:43:00,
2013-04-19 06:53:00,57.0,-99.9,30.14,North,9,26.0,32.0,-999,-99.99,,,-99.99,,2013-04-19 11:53:00,
2013-04-19 07:00:00,56.0,-99.9,30.18,North,4,21.0,30.0,-999,-99.99,,,-99.99,,2013-04-19 12:00:00,
2013-04-19 07:32:00,56.0,-99.9,30.18,North,4,21.0,30.0,-999,-99.99,,,-99.99,,2013-04-19 12:32:00,
2013-04-19 07:42:00,56.0,-99.9,30.18,North,4,21.0,30.0,-999,-99.99,,,-99.99,,2013-04-19 12:42:00,
2013-04-19 07:53:00,56.0,-99.9,30.18,North,4,21.0,30.0,-999,-99.99,,,-99.99,,2013-04-19 12:53:00,
2013-04-19 08:00:00,55.0,-99.9,30.20,North,6,19.0,26.0,-999,-99.99,,,-99.99,,2013-04-19 13:00:00,
2013-04-19 08:32:00,55.0,-99.9,30.20,North,6,19.0,26.0,-999,-99.99,,,-99.99,,2013-04-19 13:32:00,
2013-04-19 08:42:00,55.0,-99.9,30.20,North,6,19.0,26.0,-999,-99.99,,,-99.99,,2013-04-19 13:42:00,
2013-04-19 08:52:00,55.0,-99.9,30.20,North,6,19.0,26.0,-999,-99.99,,,-99.99,,2013-04-19 13:52:00,
2013-04-19 09:00:00,55.0,-99.9,30.26,North,1,16.0,24.0,-999,-99.99,,,-99.99,,2013-04-19 14:00:00,
2013-04-19 09:32:00,55.0,-99.9,30.26,North,1,16.0,24.0,-999,-99.99,,,-99.99,,2013-04-19 14:32:00,
2013-04-19 09:43:00,55.0,-99.9,30.26,North,1,16.0,24.0,-999,-99.99,,,-99.99,,2013-04-19 14:43:00,
2013-04-19 09:52:00,55.0,-99.9,30.26,North,1,16.0,24.0,-999,-99.99,,,-99.99,,2013-04-19 14:52:00,
2013-04-19 10:00:00,55.0,-99.9,30.26,North,359,20.0,24.0,-999,-99.99,,,-99.99,,2013-04-19 15:00:00,
2013-04-19 10:33:00,55.0,-99.9,30.26,North,359,20.0,24.0,-999,-99.99,,,-99.99,,2013-04-19 15:33:00,
2013-04-19 10:43:00,55.0,-99.9,30.26,North,359,20.0,24.0,-999,-99.99,,,-99.99,,2013-04-19 15:43:00,
2013-04-19 10:53:00,55.0,-99.9,30.26,North,359,20.0,24.0,-999,-99.99,,,-99.99,,2013-04-19 15:53:00,
2013-04-19 11:00:00,56.0,-99.9,30.31,North,5,13.0,18.0,-999,-99.99,,,-99.99,,2013-04-19 16:00:00,
2013-04-19 11:33:00,56.0,-99.9,30.31,North,5,13.0,18.0,-999,-99.99,,,-99.99,,2013-04-19 16:33:00,
2013-04-19 11:43:00,56.0,-99.9,30.31,North,5,13.0,18.0,-999,-99.99,,,-99.99,,2013-04-19 16:43:00,
2013-04-19 11:53:00,56.0,-99.9,30.31,North,5,13.0,18.0,-999,-99.99,,,-99.99,,2013-04-19 16:53:00,
2013-04-19 12:00:00,58.0,-99.9,30.31,North,11,16.0,20.0,-999,-99.99,,,-99.99,,2013-04-19 17:00:00,
2013-04-19 12:33:00,58.0,-99.9,30.31,North,11,16.0,20.0,-999,-99.99,,,-99.99,,2013-04-19 17:33:00,
2013-04-19 12:43:00,58.0,-99.9,30.31,North,11,16.0,20.0,-999,-99.99,,,-99.99,,2013-04-19 17:43:00,
2013-04-19 12:52:00,58.0,-99.9,30.31,North,11,16.0,20.0,-999,-99.99,,,-99.99,,2013-04-19 17:52:00,
2013-04-19 13:00:00,58.0,-99.9,30.30,NNE,17,12.0,15.0,-999,-99.99,,,-99.99,,2013-04-19 18:00:00,
2013-04-19 13:33:00,58.0,-99.9,30.30,NNE,17,12.0,15.0,-999,-99.99,,,-99.99,,2013-04-19 18:33:00,
2013-04-19 13:43:00,58.0,-99.9,30.30,NNE,17,12.0,15.0,-999,-99.99,,,-99.99,,2013-04-19 18:43:00,
2013-04-19 13:52:00,58.0,-99.9,30.30,NNE,17,12.0,15.0,-999,-99.99,,,-99.99,,2013-04-19 18:52:00,
2013-04-19 14:00:00,59.0,-99.9,30.27,NNE,30,8.0,11.0,-999,-99.99,,,-99.99,,2013-04-19 19:00:00,
2013-04-19 14:32:00,59.0,-99.9,30.27,NNE,30,8.0,11.0,-999,-99.99,,,-99.99,,2013-04-19 19:32:00,
2013-04-19 14:42:00,59.0,-99.9,30.27,NNE,30,8.0,11.0,-999,-99.99,,,-99.99,,2013-04-19 19:42:00,
2013-04-19 14:52:00,59.0,-99.9,30.27,NNE,30,8.0,11.0,-999,-99.99,,,-99.99,,2013-04-19 19:52:00,
2013-04-19 15:00:00,59.0,-99.9,30.24,ESE,105,2.0,4.0,-999,-99.99,,,-99.99,,2013-04-19 20:00:00,
2013-04-19 15:32:00,59.0,-99.9,30.24,ESE,105,2.0,4.0,-999,-99.99,,,-99.99,,2013-04-19 20:32:00,
2013-04-19 15:42:00,59.0,-99.9,30.24,ESE,105,2.0,4.0,-999,-99.99,,,-99.99,,2013-04-19 20:42:00,
2013-04-19 15:52:00,59.0,-99.9,30.24,ESE,105,2.0,4.0,-999,-99.99,,,-99.99,,2013-04-19 20:52:00,
2013-04-19 16:00:00,61.0,-99.9,30.20,ESE,115,7.0,11.0,-999,-99.99,,,-99.99,,2013-04-19 21:00:00,
2013-04-19 16:32:00,61.0,-99.9,30.20,ESE,115,7.0,11.0,-999,-99.99,,,-99.99,,2013-04-19 21:32:00,
2013-04-19 16:43:00,61.0,-99.9,30.20,ESE,115,7.0,11.0,-999,-99.99,,,-99.99,,2013-04-19 21:43:00,
2013-04-19 16:53:00,61.0,-99.9,30.20,ESE,115,7.0,11.0,-999,-99.99,,,-99.99,,2013-04-19 21:53:00,
2013-04-19 17:00:00,62.0,-99.9,30.17,ESE,118,10.0,13.0,-999,-99.99,,,-99.99,,2013-04-19 22:00:00,
2013-04-19 17:33:00,62.0,-99.9,30.17,ESE,118,10.0,13.0,-999,-99.99,,,-99.99,,2013-04-19 22:33:00,
2013-04-19 17:42:00,62.0,-99.9,30.17,ESE,118,10.0,13.0,-999,-99.99,,,-99.99,,2013-04-19 22:42:00,
2013-04-19 17:52:00,62.0,-99.9,30.17,ESE,118,10.0,13.0,-999,-99.99,,,-99.99,,2013-04-19 22:52:00,
2013-04-19 18:00:00,62.0,-99.9,30.16,ESE,106,10.0,12.0,-999,-99.99,,,-99.99,,2013-04-19 23:00:00,
2013-04-19 18:32:00,62.0,-99.9,30.16,ESE,106,10.0,12.0,-999,-99.99,,,-99.99,,2013-04-19 23:32:00,
2013-04-19 18:42:00,62.0,-99.9,30.16,ESE,106,10.0,12.0,-999,-99.99,,,-99.99,,2013-04-19 23:42:00,
2013-04-19 18:53:00,62.0,-99.9,30.16,ESE,106,10.0,12.0,-999,-99.99,,,-99.99,,2013-04-19 23:53:00,
2013-04-19 19:00:00,63.0,-99.9,30.16,ESE,113,10.0,12.0,-999,-99.99,,,-99.99,,2013-04-20 00:00:00,
2013-04-19 19:32:00,63.0,-99.9,30.16,ESE,113,10.0,12.0,-999,-99.99,,,-99.99,,2013-04-20 00:32:00,
2013-04-19 19:42:00,63.0,-99.9,30.16,ESE,113,10.0,12.0,-999,-99.99,,,-99.99,,2013-04-20 00:42:00,
2013-04-19 19:52:00,63.0,-99.9,30.16,ESE,113,10.0,12.0,-999,-99.99,,,-99.99,,2013-04-20 00:52:00,
2013-04-19 20:00:00,62.0,-99.9,30.17,SSE,155,5.0,8.0,-999,-99.99,,,-99.99,,2013-04-20 01:00:00,
2013-04-19 20:32:00,62.0,-99.9,30.17,SSE,155,5.0,8.0,-999,-99.99,,,-99.99,,2013-04-20 01:32:00,
2013-04-19 20:42:00,62.0,-99.9,30.17,SSE,155,5.0,8.0,-999,-99.99,,,-99.99,,2013-04-20 01:42:00,
2013-04-19 20:52:00,62.0,-99.9,30.17,SSE,155,5.0,8.0,-999,-99.99,,,-99.99,,2013-04-20 01:52:00,
2013-04-19 21:00:00,62.0,-99.9,30.19,SSE,155,3.0,4.0,-999,-99.99,,,-99.99,,2013-04-20 02:00:00,
2013-04-19 21:32:00,62.0,-99.9,30.19,SSE,155,3.0,4.0,-999,-99.99,,,-99.99,,2013-04-20 02:32:00,
2013-04-19 21:42:00,62.0,-99.9,30.19,SSE,155,3.0,4.0,-999,-99.99,,,-99.99,,2013-04-20 02:42:00,
2013-04-19 21:52:00,62.0,-99.9,30.19,SSE,155,3.0,4.0,-999,-99.99,,,-99.99,,2013-04-20 02:52:00,
2013-04-19 22:00:00,61.0,-99.9,30.21,SSE,150,3.0,4.0,-999,-99.99,,,-99.99,,2013-04-20 03:00:00,
2013-04-19 22:33:00,61.0,-99.9,30.21,SSE,150,3.0,4.0,-999,-99.99,,,-99.99,,2013-04-20 03:33:00,
2013-04-19 22:43:00,61.0,-99.9,30.21,SSE,150,3.0,4.0,-999,-99.99,,,-99.99,,2013-04-20 03:43:00,
2013-04-19 22:53:00,61.0,-99.9,30.21,SSE,150,3.0,4.0,-999,-99.99,,,-99.99,,2013-04-20 03:53:00,
2013-04-19 23:00:00,62.0,-99.9,30.22,SSE,155,3.0,3.0,-999,-99.99,,,-99.99,,2013-04-20 04:00:00,
2013-04-19 23:33:00,62.0,-99.9,30.22,SSE,155,3.0,3.0,-999,-99.99,,,-99.99,,2013-04-20 04:33:00,
2013-04-19 23:43:00,62.0,-99.9,30.22,SSE,155,3.0,3.0,-999,-99.99,,,-99.99,,2013-04-20 04:43:00,
2013-04-19 23:53:00,62.0,-99.9,30.22,SSE,155,3.0,3.0,-999,-99.99,,,-99.99,,2013-04-20 04:53:00,